Time;durP1;ratioP1;P1;durP2;ratioP2;P2;SDS_P1;SDS_P2;PMS_P1;PMS_P2;Temp;Humidity;BMP_temperature;BMP_pressure;BME280_temperature;BME280_humidity;BME280_pressure;Samples;Min_cycle;Max_cycle;Signal;HPM_P1;HPM_P2
2023/03/12 00:00:51;;;;;;;13.45;6.30;;;;;;;-4.61;100.00;98156.34;4156733;28;20050;-72
2023/03/12 00:02:51;;;;;;;11.15;6.68;;;;;;;-4.51;100.00;98144.63;4156052;28;20137;-72
2023/03/12 00:04:51;;;;;;;14.35;7.00;;;;;;;-4.59;100.00;98154.16;4155991;28;20153;-72
2023/03/12 00:06:51;;;;;;;10.00;6.20;;;;;;;-4.63;100.00;98153.16;4188570;28;20098;-72
2023/03/12 00:08:52;;;;;;;9.20;5.97;;;;;;;-4.71;100.00;98156.47;4156731;28;20220;-72
2023/03/12 00:10:52;;;;;;;11.20;5.80;;;;;;;-4.74;100.00;98143.53;4155935;28;20064;-72
2023/03/12 00:12:53;;;;;;;11.50;6.55;;;;;;;-4.84;100.00;98157.94;4154985;28;20131;-72
2023/03/12 00:14:53;;;;;;;13.90;6.57;;;;;;;-4.79;100.00;98173.28;4156699;28;20160;-72
2023/03/12 00:16:54;;;;;;;10.75;6.07;;;;;;;-4.76;100.00;98167.31;4156938;28;20065;-72
2023/03/12 00:18:55;;;;;;;11.48;6.57;;;;;;;-4.69;100.00;98169.69;4156130;28;20053;-72
2023/03/12 00:20:55;;;;;;;17.00;8.70;;;;;;;-4.65;100.00;98165.31;4156670;28;20060;-72
2023/03/12 00:22:55;;;;;;;16.45;8.48;;;;;;;-4.62;100.00;98176.34;4155953;28;20438;-72
2023/03/12 00:24:56;;;;;;;10.88;7.05;;;;;;;-4.69;100.00;98170.47;4156032;28;20138;-72
2023/03/12 00:26:56;;;;;;;12.98;7.38;;;;;;;-4.74;100.00;98172.41;4156514;28;20131;-72
2023/03/12 00:28:57;;;;;;;14.98;7.50;;;;;;;-4.78;100.00;98177.59;4156614;28;20111;-72
2023/03/12 00:30:57;;;;;;;21.13;10.98;;;;;;;-4.80;100.00;98182.47;4156406;28;20131;-72
2023/03/12 00:32:58;;;;;;;21.67;9.90;;;;;;;-4.77;100.00;98173.00;4155424;28;20084;-72
2023/03/12 00:34:58;;;;;;;24.30;10.18;;;;;;;-4.74;100.00;98183.22;4156279;28;20072;-72
2023/03/12 00:36:58;;;;;;;21.20;10.05;;;;;;;-4.77;100.00;98170.31;4156578;28;20072;-72
2023/03/12 00:38:59;;;;;;;28.83;12.15;;;;;;;-4.76;100.00;98170.00;4156282;28;20470;-72
2023/03/12 00:41:00;;;;;;;36.35;14.45;;;;;;;-4.81;100.00;98172.75;4156040;28;20382;-72
2023/03/12 00:43:00;;;;;;;33.10;14.00;;;;;;;-4.86;100.00;98173.63;4155743;28;20081;-72
2023/03/12 00:45:00;;;;;;;35.10;14.40;;;;;;;-4.87;100.00;98174.72;4155810;28;20053;-72
2023/03/12 00:47:01;;;;;;;30.88;15.27;;;;;;;-4.90;100.00;98174.47;4155551;28;20100;-72
2023/03/12 00:49:01;;;;;;;32.58;16.00;;;;;;;-4.89;100.00;98176.06;4158813;28;20077;-72
2023/03/12 00:51:02;;;;;;;41.92;16.23;;;;;;;-4.87;100.00;98176.63;4160059;28;20073;-72
2023/03/12 00:53:02;;;;;;;34.20;16.23;;;;;;;-4.95;100.00;98175.34;4159117;28;20046;-72
2023/03/12 00:55:03;;;;;;;39.88;17.15;;;;;;;-4.95;100.00;98172.63;4158827;28;20128;-72
2023/03/12 00:57:03;;;;;;;32.15;15.32;;;;;;;-4.92;100.00;98168.56;4159910;28;20065;-72
2023/03/12 00:59:04;;;;;;;28.05;14.48;;;;;;;-4.99;100.00;98163.50;4160619;28;20057;-72
2023/03/12 01:01:04;;;;;;;34.38;15.23;;;;;;;-4.97;100.00;98161.31;4159731;28;20076;-72
2023/03/12 01:03:05;;;;;;;34.13;14.60;;;;;;;-4.97;100.00;98158.59;4157637;28;20909;-72
2023/03/12 01:05:07;;;;;;;32.83;14.10;;;;;;;-4.96;100.00;98164.84;4159866;28;20056;-73
2023/03/12 01:07:08;;;;;;;27.10;14.48;;;;;;;-4.98;100.00;98158.91;4159788;28;20041;-72
2023/03/12 01:09:08;;;;;;;27.40;13.98;;;;;;;-5.02;100.00;98160.56;4160335;28;20316;-72
2023/03/12 01:11:15;;;;;;;32.83;16.00;;;;;;;-5.02;100.00;98163.25;4159769;28;20465;-72
2023/03/12 01:13:16;;;;;;;29.65;14.73;;;;;;;-5.05;100.00;98161.13;4157762;28;20049;-72
2023/03/12 01:15:17;;;;;;;33.53;15.38;;;;;;;-5.04;100.00;98160.84;4159956;28;20148;-72
2023/03/12 01:17:17;;;;;;;23.40;13.25;;;;;;;-5.04;100.00;98143.88;4159234;28;20128;-72
2023/03/12 01:19:17;;;;;;;27.60;13.73;;;;;;;-5.02;100.00;98160.56;4160117;28;20131;-72
2023/03/12 01:21:18;;;;;;;28.05;12.15;;;;;;;-5.05;100.00;98161.13;4159950;28;20134;-72
2023/03/12 01:23:18;;;;;;;26.45;12.55;;;;;;;-5.08;100.00;98159.81;4157338;28;20592;-72
2023/03/12 01:25:19;;;;;;;23.20;12.48;;;;;;;-5.05;100.00;98158.41;4158435;28;20458;-72
2023/03/12 01:27:19;;;;;;;26.65;11.80;;;;;;;-5.11;100.00;98163.06;4159889;28;20037;-72
2023/03/12 01:29:19;;;;;;;23.63;11.45;;;;;;;-5.14;100.00;98166.31;4159655;28;20462;-72
2023/03/12 01:31:20;;;;;;;20.92;10.38;;;;;;;-5.23;100.00;98159.94;4159582;28;20073;-72
2023/03/12 01:33:23;;;;;;;23.75;11.55;;;;;;;-5.25;100.00;98171.00;4157782;28;20068;-72
2023/03/12 01:35:24;;;;;;;17.08;10.07;;;;;;;-5.22;100.00;98172.31;4159329;28;20481;-72
2023/03/12 01:37:26;;;;;;;21.52;10.50;;;;;;;-5.17;100.00;98162.31;4159648;28;20037;-72
2023/03/12 01:39:27;;;;;;;17.88;8.35;;;;;;;-5.13;100.00;98163.38;4159468;28;20278;-72
2023/03/12 01:41:33;;;;;;;18.00;8.65;;;;;;;-5.07;100.00;98163.31;4159095;28;20048;-72
2023/03/12 01:43:36;;;;;;;16.10;8.57;;;;;;;-5.15;100.00;98156.63;4158790;28;20507;-72
2023/03/12 01:46:20;;;;;;;15.15;7.68;;;;;;;-5.15;100.00;98156.63;4158914;28;20080;-72
2023/03/12 01:48:21;;;;;;;10.77;6.25;;;;;;;-5.14;100.00;98153.63;4158587;28;20448;-72
2023/03/12 01:50:22;;;;;;;12.40;6.28;;;;;;;-5.17;100.00;98156.91;4159431;28;20244;-72
2023/03/12 01:52:28;;;;;;;9.88;5.30;;;;;;;-5.21;100.00;98152.38;4158833;28;20037;-72
2023/03/12 01:54:37;;;;;;;7.68;4.70;;;;;;;-5.25;100.00;98148.63;4159156;28;20044;-72
2023/03/12 01:56:38;;;;;;;8.15;5.78;;;;;;;-5.25;100.00;98157.53;4159582;28;20040;-72
2023/03/12 01:58:41;;;;;;;17.17;9.25;;;;;;;-5.28;100.00;98152.72;4158811;28;20046;-72
2023/03/12 02:00:42;;;;;;;25.38;12.48;;;;;;;-5.35;100.00;98157.63;4158557;28;20045;-72
2023/03/12 02:02:44;;;;;;;13.30;8.23;;;;;;;-5.35;100.00;98157.63;4158133;28;20065;-72
2023/03/12 02:04:46;;;;;;;25.08;9.50;;;;;;;-5.29;100.00;98153.00;4158941;28;20436;-72
2023/03/12 02:07:08;;;;;;;19.00;10.32;;;;;;;-5.35;100.00;98164.91;4158979;28;20044;-72
2023/03/12 02:09:11;;;;;;;14.32;8.75;;;;;;;-5.39;100.00;98153.84;4158638;28;20388;-72
2023/03/12 02:11:11;;;;;;;;;;;;;;;-5.43;100.00;98158.22;4159570;28;20049;-72
2023/03/12 02:13:12;;;;;;;11.20;7.18;;;;;;;-5.46;100.00;98159.59;4158188;28;20281;-72
2023/03/12 02:15:12;;;;;;;17.38;8.57;;;;;;;-5.48;100.00;98150.97;4156963;28;20113;-72
2023/03/12 02:17:13;;;;;;;10.68;6.10;;;;;;;-5.46;100.00;98153.38;4159047;28;20049;-72
2023/03/12 02:19:26;;;;;;;12.55;7.25;;;;;;;-5.52;100.00;98155.31;4159141;28;20461;-72
2023/03/12 02:21:32;;;;;;;11.93;5.68;;;;;;;-5.54;100.00;98156.69;4158541;28;20041;-72
2023/03/12 02:23:47;;;;;;;8.88;5.57;;;;;;;-5.58;100.00;98156.44;4157320;28;20465;-72
2023/03/12 02:25:50;;;;;;;9.57;5.35;;;;;;;-5.56;100.00;98159.66;4158872;28;20064;-72
2023/03/12 02:27:51;;;;;;;7.30;4.57;;;;;;;-5.54;100.00;98156.69;4158724;28;20053;-72
2023/03/12 02:29:51;;;;;;;10.05;5.40;;;;;;;-5.54;100.00;98152.13;4158254;28;20373;-72
2023/03/12 02:31:55;;;;;;;10.38;5.55;;;;;;;-5.48;100.00;98158.25;4159078;28;20546;-72
2023/03/12 02:33:57;;;;;;;7.45;5.03;;;;;;;-5.47;100.00;98157.97;4157515;28;20041;-72
2023/03/12 02:35:57;;;;;;;8.73;4.53;;;;;;;-5.44;100.00;98153.91;4156308;28;20041;-72
2023/03/12 02:37:57;;;;;;;9.73;4.55;;;;;;;-5.46;100.00;98154.22;4157576;28;20499;-72
2023/03/12 02:40:35;;;;;;;11.25;4.70;;;;;;;-5.46;100.00;98161.47;4158589;28;20512;-72
2023/03/12 02:42:36;;;;;;;10.15;4.90;;;;;;;-5.46;100.00;98151.50;4156477;28;20041;-72
2023/03/12 02:44:37;;;;;;;6.78;4.65;;;;;;;-5.41;100.00;98158.72;4157912;28;20057;-72
2023/03/12 02:46:41;;;;;;;9.70;3.85;;;;;;;-5.44;100.00;98157.41;4157550;28;20389;-72
2023/03/12 02:48:41;;;;;;;6.88;4.47;;;;;;;-5.41;100.00;98159.53;4158059;28;20045;-72
2023/03/12 02:50:41;;;;;;;7.68;4.88;;;;;;;-5.40;100.00;98158.44;4158305;28;20038;-72
2023/03/12 02:52:42;;;;;;;8.63;4.88;;;;;;;-5.32;100.00;98162.44;4157874;28;20053;-72
2023/03/12 02:54:42;;;;;;;9.02;4.68;;;;;;;-5.31;100.00;98168.63;4158105;28;20049;-72
2023/03/12 02:56:43;;;;;;;8.60;4.55;;;;;;;-5.21;100.00;98153.19;4158028;28;20041;-72
2023/03/12 02:58:43;;;;;;;7.63;4.28;;;;;;;-5.22;100.00;98156.16;4157909;28;20033;-72
2023/03/12 03:00:44;;;;;;;7.40;3.85;;;;;;;-5.23;100.00;98152.66;4189027;28;20029;-72
2023/03/12 03:02:44;;;;;;;8.10;4.32;;;;;;;-5.25;100.00;98145.94;4157697;28;20053;-72
2023/03/12 03:04:44;;;;;;;9.02;3.97;;;;;;;-5.26;100.00;98153.22;4157870;28;20042;-72
2023/03/12 03:06:47;;;;;;;6.22;3.58;;;;;;;-5.26;100.00;98145.13;4158658;28;20049;-72
2023/03/12 03:08:47;;;;;;;8.00;3.88;;;;;;;-5.22;100.00;98154.25;4157891;28;20045;-72
2023/03/12 03:10:50;;;;;;;7.57;4.00;;;;;;;-5.25;100.00;98149.44;4157819;28;20104;-72
2023/03/12 03:12:50;;;;;;;;;;;;;;;-5.21;100.00;98155.09;4156449;28;20041;-72
2023/03/12 03:14:50;;;;;;;4.80;3.15;;;;;;;-5.19;100.00;98147.50;4158415;28;20388;-72
2023/03/12 03:16:50;;;;;;;6.85;3.60;;;;;;;-5.21;100.00;98147.00;4157949;28;20494;-72
2023/03/12 03:18:51;;;;;;;6.88;3.85;;;;;;;-5.16;100.00;98150.44;4158215;28;20056;-72
2023/03/12 03:20:59;;;;;;;4.88;3.08;;;;;;;-5.14;100.00;98159.03;4158004;28;20042;-72
2023/03/12 03:22:59;;;;;;;6.45;3.40;;;;;;;-5.15;100.00;98153.94;4156935;28;20356;-72
2023/03/12 03:25:00;;;;;;;5.85;3.42;;;;;;;-5.13;100.00;98149.88;4158088;28;20046;-72
2023/03/12 03:27:00;;;;;;;6.10;3.72;;;;;;;-5.10;100.00;98151.19;4157264;28;20042;-72
2023/03/12 03:29:00;;;;;;;7.13;3.17;;;;;;;-5.14;100.00;98150.13;4157749;28;20440;-72
2023/03/12 03:31:01;;;;;;;5.57;3.47;;;;;;;-5.10;100.00;98149.31;4158270;28;20041;-72
2023/03/12 03:33:01;;;;;;;6.30;3.83;;;;;;;-5.11;100.00;98149.59;4156945;28;20081;-72
2023/03/12 03:35:02;;;;;;;7.72;3.50;;;;;;;-5.11;100.00;98152.28;4157812;28;20099;-72
2023/03/12 03:37:02;;;;;;;11.27;3.70;;;;;;;-5.05;100.00;98147.63;4157941;28;20041;-72
2023/03/12 03:39:03;;;;;;;9.02;4.15;;;;;;;-5.09;100.00;98153.59;4157925;28;20048;-72
2023/03/12 03:41:04;;;;;;;8.10;4.25;;;;;;;-5.07;100.00;98160.59;4157364;28;20037;-72
2023/03/12 03:43:04;;;;;;;6.00;3.60;;;;;;;-5.09;100.00;98160.88;4156897;28;20064;-72
2023/03/12 03:45:06;;;;;;;4.88;3.40;;;;;;;-5.07;100.00;98166.81;4157800;28;20041;-72
2023/03/12 03:47:06;;;;;;;5.50;3.15;;;;;;;-5.07;100.00;98161.41;4157684;28;20141;-72
2023/03/12 03:49:06;;;;;;;5.07;3.10;;;;;;;-4.98;100.00;98165.09;4155796;28;20111;-72
2023/03/12 03:51:09;;;;;;;4.78;3.22;;;;;;;-5.00;100.00;98163.78;4157648;28;20099;-72
2023/03/12 03:53:09;;;;;;;6.55;3.40;;;;;;;-4.95;100.00;98158.34;4156913;28;20457;-72
2023/03/12 03:55:09;;;;;;;6.80;3.47;;;;;;;-4.95;100.00;98163.75;4157615;28;20041;-72
2023/03/12 03:57:10;;;;;;;6.50;4.10;;;;;;;-4.95;100.00;98156.44;4157576;28;20045;-72
2023/03/12 03:59:10;;;;;;;5.38;3.30;;;;;;;-4.90;100.00;98164.47;4157453;28;20459;-72
2023/03/12 04:01:12;;;;;;;7.38;3.33;;;;;;;-4.92;100.00;98165.84;4157445;28;20359;-72
2023/03/12 04:03:13;;;;;;;5.95;3.80;;;;;;;-4.96;100.00;98167.53;4156881;28;20469;-72
2023/03/12 04:05:14;;;;;;;4.88;3.28;;;;;;;-4.98;100.00;98169.69;4157921;28;20140;-72
2023/03/12 04:07:15;;;;;;;5.57;3.20;;;;;;;-5.01;100.00;98165.69;4157558;28;20378;-72
2023/03/12 04:09:15;;;;;;;5.82;2.97;;;;;;;-4.98;100.00;98159.69;4157503;28;20065;-72
2023/03/12 04:11:19;;;;;;;10.77;4.07;;;;;;;-4.95;100.00;98159.16;4157265;28;20414;-72
2023/03/12 04:13:19;;;;;;;5.22;3.13;;;;;;;-4.96;100.00;98154.03;4156481;28;20120;-72
2023/03/12 04:15:20;;;;;;;4.38;2.78;;;;;;;-4.94;100.00;98157.25;4157381;28;20434;-72
2023/03/12 04:17:21;;;;;;;4.97;3.20;;;;;;;-4.96;100.00;98157.53;4157654;28;20045;-72
2023/03/12 04:19:21;;;;;;;5.80;2.80;;;;;;;-4.98;100.00;98148.91;4157717;28;20314;-72
2023/03/12 04:21:22;;;;;;;5.43;2.78;;;;;;;-5.04;100.00;98146.56;4157430;28;20048;-72
2023/03/12 04:23:22;;;;;;;4.65;2.90;;;;;;;-5.04;100.00;98151.97;4158003;28;20053;-72
2023/03/12 04:25:23;;;;;;;5.57;2.80;;;;;;;-5.07;100.00;98155.22;4159998;28;20041;-72
2023/03/12 04:27:23;;;;;;;7.70;3.33;;;;;;;-4.96;100.00;98151.34;4160819;28;20540;-72
2023/03/12 04:29:24;;;;;;;6.13;2.97;;;;;;;-4.98;100.00;98151.59;4160452;28;20088;-72
2023/03/12 04:31:24;;;;;;;4.85;2.75;;;;;;;-4.99;100.00;98152.69;4160816;28;20053;-72
2023/03/12 04:33:29;;;;;;;5.93;2.70;;;;;;;-4.95;100.00;98159.16;4159561;28;20120;-72
2023/03/12 04:35:30;;;;;;;4.40;2.78;;;;;;;-4.90;100.00;98158.28;4159721;28;20124;-72
2023/03/12 04:37:32;;;;;;;6.13;2.83;;;;;;;-4.94;100.00;98163.44;4160241;28;20344;-72
2023/03/12 04:39:33;;;;;;;5.10;2.70;;;;;;;-4.89;100.00;98167.97;4159996;28;20107;-72
2023/03/12 04:41:34;;;;;;;3.25;2.65;;;;;;;-4.94;100.00;98160.75;4160591;28;20049;-72
2023/03/12 04:43:34;;;;;;;4.50;2.70;;;;;;;-4.90;100.00;98152.88;4158456;28;20064;-72
2023/03/12 04:45:36;;;;;;;4.03;2.55;;;;;;;-4.86;100.00;98154.72;4159657;28;20050;-72
2023/03/12 04:47:36;;;;;;;3.20;2.05;;;;;;;-4.86;100.00;98154.72;4160140;28;20052;-72
2023/03/12 04:49:38;;;;;;;3.00;2.47;;;;;;;-4.87;100.00;98150.44;4160528;28;20049;-72
2023/03/12 04:51:38;;;;;;;5.47;2.80;;;;;;;-4.83;100.00;98143.34;4159983;28;20478;-72
2023/03/12 04:53:39;;;;;;;5.70;3.40;;;;;;;-4.81;100.00;98149.25;4159936;28;20100;-72
2023/03/12 04:55:39;;;;;;;9.88;3.58;;;;;;;-4.77;100.00;98141.41;4159664;28;20080;-72
2023/03/12 04:57:40;;;;;;;8.57;3.80;;;;;;;-4.79;100.00;98140.91;4160143;28;20454;-72
2023/03/12 04:59:40;;;;;;;7.22;3.72;;;;;;;-4.77;100.00;98144.13;4159993;28;20049;-72
2023/03/12 05:01:41;;;;;;;10.32;3.50;;;;;;;-4.76;100.00;98148.41;4158374;28;20029;-72
2023/03/12 05:03:41;;;;;;;6.47;3.35;;;;;;;-4.76;100.00;98142.22;4159841;28;20339;-72
2023/03/12 05:05:42;;;;;;;6.28;3.78;;;;;;;-4.70;100.00;98143.78;4159368;28;20057;-72
2023/03/12 05:07:42;;;;;;;6.22;3.15;;;;;;;-4.69;100.00;98148.09;4159887;28;20382;-72
2023/03/12 05:09:43;;;;;;;7.93;3.55;;;;;;;-4.71;100.00;98159.19;4159857;28;20053;-72
2023/03/12 05:11:43;;;;;;;5.65;3.60;;;;;;;-4.68;100.00;98152.41;4159833;28;20037;-72
2023/03/12 05:13:44;;;;;;;5.60;3.17;;;;;;;-4.65;100.00;98155.31;4158721;28;20172;-72
2023/03/12 05:15:46;;;;;;;4.95;2.83;;;;;;;-4.62;100.00;98146.66;4159797;28;20061;-72
2023/03/12 05:17:46;;;;;;;5.68;2.92;;;;;;;-4.60;100.00;98152.56;4159309;28;20425;-72
2023/03/12 05:19:46;;;;;;;5.45;2.95;;;;;;;-4.62;100.00;98146.66;4160003;28;20046;-72
2023/03/12 05:21:47;;;;;;;5.65;2.92;;;;;;;-4.61;100.00;98147.47;4159255;28;20041;-72
2023/03/12 05:23:47;;;;;;;6.18;3.10;;;;;;;-4.64;100.00;98140.72;4158696;28;20458;-72
2023/03/12 05:25:48;;;;;;;5.03;2.78;;;;;;;-4.64;100.00;98146.13;4159457;28;20478;-72
2023/03/12 05:27:48;;;;;;;9.38;2.65;;;;;;;-4.63;100.00;98144.25;4159328;28;20040;-72
2023/03/12 05:29:48;;;;;;;3.17;2.63;;;;;;;-4.61;100.00;98147.47;4159702;28;20049;-72
2023/03/12 05:31:49;;;;;;;5.10;3.17;;;;;;;-4.61;100.00;98144.75;4159432;28;20045;-72
2023/03/12 05:33:49;;;;;;;4.03;2.75;;;;;;;-4.59;100.00;98139.88;4158822;28;20091;-72
2023/03/12 05:35:49;;;;;;;5.90;2.38;;;;;;;-4.58;100.00;98144.97;4158921;28;20037;-72
2023/03/12 05:37:50;;;;;;;4.95;2.50;;;;;;;-4.56;100.00;98145.47;4159262;28;20057;-72
2023/03/12 05:39:53;;;;;;;6.18;3.33;;;;;;;-4.55;100.00;98141.72;4158995;28;20053;-72
2023/03/12 05:41:55;;;;;;;5.10;2.40;;;;;;;-4.52;100.00;98149.22;4157186;28;20046;-72
2023/03/12 05:43:57;;;;;;;5.32;2.92;;;;;;;-4.51;100.00;98141.94;4157742;28;20300;-72
2023/03/12 05:46:02;;;;;;;4.70;2.65;;;;;;;-4.50;100.00;98146.25;4159551;28;20034;-72
2023/03/12 05:48:03;;;;;;;7.43;3.22;;;;;;;-4.53;100.00;98139.53;4158764;28;20048;-72
2023/03/12 05:50:03;;;;;;;4.45;2.78;;;;;;;-4.52;100.00;98143.84;4159247;28;20450;-72
2023/03/12 05:52:04;;;;;;;7.22;3.80;;;;;;;-4.53;100.00;98141.44;4158298;28;20032;-72
2023/03/12 05:54:05;;;;;;;7.40;3.47;;;;;;;-4.52;100.00;98141.13;4159232;28;20227;-72
2023/03/12 05:56:08;;;;;;;7.78;4.22;;;;;;;-4.47;100.00;98134.84;4158898;28;20103;-72
2023/03/12 05:58:08;;;;;;;11.35;5.85;;;;;;;-4.42;100.00;98140.19;4158868;28;20032;-72
2023/03/12 06:00:12;;;;;;;12.63;5.90;;;;;;;-4.39;100.00;98141.50;4159207;28;20433;-72
2023/03/12 06:02:12;;;;;;;10.68;5.50;;;;;;;-4.40;100.00;98148.81;4158865;28;20092;-72
2023/03/12 06:04:13;;;;;;;15.55;5.72;;;;;;;-4.39;100.00;98145.00;4158549;28;20033;-73
2023/03/12 06:06:14;;;;;;;12.20;5.57;;;;;;;-4.38;100.00;98138.56;4159069;28;20030;-72
2023/03/12 06:08:14;;;;;;;11.70;4.80;;;;;;;-4.33;100.00;98140.38;4158683;28;20308;-72
2023/03/12 06:10:14;;;;;;;10.50;4.88;;;;;;;-4.29;100.00;98136.00;4159276;28;20106;-72
2023/03/12 06:12:15;;;;;;;8.82;3.85;;;;;;;-4.24;100.00;98131.31;4157342;28;20048;-72
2023/03/12 06:14:15;;;;;;;7.03;3.38;;;;;;;-4.27;100.00;98131.91;4157797;28;20025;-72
2023/03/12 06:16:22;;;;;;;6.20;3.28;;;;;;;-4.24;100.00;98130.53;4159148;28;20025;-72
2023/03/12 06:18:22;;;;;;;7.15;3.50;;;;;;;-4.21;100.00;98129.16;4159268;28;20033;-72
2023/03/12 06:20:23;;;;;;;8.05;3.20;;;;;;;-4.22;100.00;98132.94;4158949;28;20160;-72
2023/03/12 06:22:24;;;;;;;4.38;3.03;;;;;;;-4.19;100.00;98132.38;4157450;28;20481;-72
2023/03/12 06:24:24;;;;;;;6.28;3.13;;;;;;;-4.21;100.00;98134.56;4158566;28;20042;-72
2023/03/12 06:26:26;;;;;;;4.38;2.67;;;;;;;-4.21;100.00;98129.16;4158944;28;20150;-72
2023/03/12 06:28:26;;;;;;;6.40;3.00;;;;;;;-4.21;100.00;98126.47;4158399;28;20042;-72
2023/03/12 06:30:26;;;;;;;3.30;2.10;;;;;;;-4.17;100.00;98122.06;4158684;28;20416;-72
2023/03/12 06:32:27;;;;;;;4.38;2.60;;;;;;;-4.14;100.00;98126.88;4158612;28;20033;-72
2023/03/12 06:34:27;;;;;;;4.13;2.60;;;;;;;-4.08;100.00;98112.22;4157928;28;20132;-72
2023/03/12 06:36:27;;;;;;;5.13;2.67;;;;;;;-4.04;100.00;98110.56;4158017;28;20373;-72
2023/03/12 06:38:28;;;;;;;6.93;2.95;;;;;;;-3.98;100.00;98117.47;4157973;28;20164;-72
2023/03/12 06:40:29;;;;;;;3.53;2.38;;;;;;;-3.97;100.00;98102.88;4157772;28;20041;-72
2023/03/12 06:42:29;;;;;;;4.38;2.75;;;;;;;-3.93;100.00;98113.91;4158197;28;20072;-72
2023/03/12 06:44:30;;;;;;;4.78;2.20;;;;;;;-3.90;100.00;98095.19;4158505;28;20515;-72
2023/03/12 06:46:31;;;;;;;4.53;2.50;;;;;;;-3.86;100.00;98108.94;4156890;28;20451;-72
2023/03/12 06:48:35;;;;;;;4.53;3.00;;;;;;;-3.82;100.00;98112.66;4158599;28;20834;-72
2023/03/12 06:50:35;;;;;;;4.05;2.60;;;;;;;-3.80;100.00;98113.19;4156844;28;20044;-72
2023/03/12 06:52:35;;;;;;;5.20;2.60;;;;;;;-3.75;100.00;98116.59;4157988;28;20537;-72
2023/03/12 06:54:36;;;;;;;5.13;2.55;;;;;;;-3.72;100.00;98110.63;4158243;28;20205;-72
2023/03/12 06:56:37;;;;;;;7.72;2.85;;;;;;;-3.68;100.00;98110.81;4158252;28;20041;-72
2023/03/12 06:58:37;;;;;;;4.90;2.72;;;;;;;-3.65;100.00;98112.13;4158375;28;20053;-72
2023/03/12 07:00:38;;;;;;;5.18;2.70;;;;;;;-3.62;100.00;98109.66;4158361;28;20041;-72
2023/03/12 07:02:38;;;;;;;3.90;2.50;;;;;;;-3.59;100.00;98106.34;4157260;28;20045;-72
2023/03/12 07:04:38;;;;;;;6.28;3.30;;;;;;;-3.57;100.00;98109.53;4157963;28;20485;-72
2023/03/12 07:06:39;;;;;;;3.90;2.88;;;;;;;-3.53;100.00;98102.47;4157972;28;20055;-72
2023/03/12 07:08:39;;;;;;;4.47;2.85;;;;;;;-3.48;100.00;98102.38;4157787;28;20440;-72
2023/03/12 07:10:39;;;;;;;5.32;3.10;;;;;;;-3.46;100.00;98099.38;4158389;28;20084;-72
2023/03/12 07:12:40;;;;;;;4.78;2.90;;;;;;;-3.42;100.00;98103.09;4157634;28;20645;-72
2023/03/12 07:14:40;;;;;;;4.10;2.50;;;;;;;-3.40;100.00;98104.41;4157964;28;20045;-72
2023/03/12 07:16:41;;;;;;;4.35;3.17;;;;;;;-3.34;100.00;98102.41;4158237;28;20462;-72
2023/03/12 07:18:41;;;;;;;2.97;2.42;;;;;;;-3.26;100.00;98103.66;4158022;28;20066;-72
2023/03/12 07:20:43;;;;;;;6.05;2.30;;;;;;;-3.24;100.00;98099.53;4157974;28;20037;-72
2023/03/12 07:22:43;;;;;;;3.45;2.53;;;;;;;-3.19;100.00;98101.34;4157097;28;20130;-72
2023/03/12 07:24:44;;;;;;;4.20;2.70;;;;;;;-3.11;100.00;98106.09;4155924;28;20144;-72
2023/03/12 07:26:44;;;;;;;6.15;2.53;;;;;;;-3.09;100.00;98095.75;4158001;28;20071;-72
2023/03/12 07:28:45;;;;;;;8.63;2.88;;;;;;;-3.02;100.00;98108.91;4157693;28;20038;-72
2023/03/12 07:30:51;;;;;;;4.38;2.90;;;;;;;-2.97;100.00;98106.13;4157679;28;20046;-72
2023/03/12 07:32:52;;;;;;;2.97;2.50;;;;;;;-2.96;100.00;98097.69;4153583;28;20111;-72
2023/03/12 07:34:52;;;;;;;5.05;2.78;;;;;;;-2.92;100.00;98106.00;4142821;28;20492;-72
2023/03/12 07:36:53;;;;;;;3.15;2.50;;;;;;;-2.86;100.00;98094.00;4161463;28;20103;-72
2023/03/12 07:38:54;;;;;;;5.75;2.47;;;;;;;-2.79;100.00;98096.31;4157431;28;20140;-72
2023/03/12 07:40:57;;;;;;;3.90;2.50;;;;;;;-2.73;100.00;98093.22;4157504;28;20156;-72
2023/03/12 07:42:57;;;;;;;5.85;2.45;;;;;;;-2.64;100.00;98098.72;4157638;28;20049;-72
2023/03/12 07:44:57;;;;;;;4.38;2.80;;;;;;;-2.59;100.00;98085.88;4157232;28;20052;-72
2023/03/12 07:46:58;;;;;;;5.85;3.05;;;;;;;-2.45;100.00;98093.19;4157849;28;20480;-72
2023/03/12 07:48:59;;;;;;;4.03;2.38;;;;;;;-2.39;100.00;98092.78;4157520;28;20054;-72
2023/03/12 07:51:00;;;;;;;7.45;3.20;;;;;;;-2.32;100.00;98076.09;4157326;28;20750;-72
2023/03/12 07:53:00;;;;;;;6.43;2.58;;;;;;;-2.18;100.00;98082.31;4157079;28;20401;-72
2023/03/12 07:55:01;;;;;;;6.03;3.03;;;;;;;-2.14;100.00;98074.38;4157158;28;20433;-72
2023/03/12 07:57:01;;;;;;;4.65;2.40;;;;;;;-1.95;100.00;98076.94;4157904;28;20038;-72
2023/03/12 07:59:01;;;;;;;4.05;2.28;;;;;;;-1.86;100.00;98075.91;4160065;28;20049;-72
2023/03/12 08:01:02;;;;;;;5.95;3.45;;;;;;;-1.77;100.00;98070.53;4160933;28;20414;-72
2023/03/12 08:03:02;;;;;;;7.53;3.30;;;;;;;-1.73;100.00;98075.06;4159514;28;20073;-72
2023/03/12 08:05:03;;;;;;;10.48;3.53;;;;;;;-1.61;100.00;98065.56;4160727;28;20041;-72
2023/03/12 08:07:03;;;;;;;6.47;3.50;;;;;;;-1.45;100.00;98062.16;4159103;28;20084;-72
2023/03/12 08:09:04;;;;;;;5.53;3.33;;;;;;;-1.31;100.00;98055.88;4160853;28;20435;-72
2023/03/12 08:11:04;;;;;;;5.80;2.90;;;;;;;-1.19;100.00;98050.66;4159174;28;20823;-72
2023/03/12 08:13:05;;;;;;;5.25;3.42;;;;;;;-1.13;100.00;98052.13;4159329;28;20136;-72
2023/03/12 08:15:07;;;;;;;6.47;3.50;;;;;;;-1.11;100.00;98060.75;4160745;28;20508;-72
2023/03/12 08:17:08;;;;;;;9.05;3.38;;;;;;;-1.02;100.00;98055.34;4158297;28;20184;-72
2023/03/12 08:19:08;;;;;;;5.57;2.70;;;;;;;-0.93;100.00;98057.00;4158550;28;20143;-72
2023/03/12 08:21:08;;;;;;;6.25;3.22;;;;;;;-0.90;100.00;98061.81;4161046;28;20410;-72
2023/03/12 08:23:09;;;;;;;5.72;3.25;;;;;;;-0.83;100.00;98061.34;4160108;28;20057;-72
2023/03/12 08:25:09;;;;;;;5.78;2.90;;;;;;;-0.69;100.00;98058.53;4160552;28;20041;-72
2023/03/12 08:27:13;;;;;;;5.72;3.28;;;;;;;-0.51;100.00;98048.50;4160526;28;20583;-72
2023/03/12 08:29:14;;;;;;;6.57;3.22;;;;;;;-0.34;100.00;98043.91;4159319;28;20041;-72
2023/03/12 08:31:15;;;;;;;4.97;2.70;;;;;;;-0.31;100.00;98040.56;4160721;28;20452;-72
2023/03/12 08:33:15;;;;;;;4.55;2.60;;;;;;;-0.23;100.00;98043.63;4157992;28;20160;-72
2023/03/12 08:35:16;;;;;;;5.43;2.83;;;;;;;-0.25;100.00;98037.69;4160245;28;20040;-72
2023/03/12 08:37:16;;;;;;;4.15;2.75;;;;;;;-0.20;100.00;98051.13;4160229;28;20041;-73
2023/03/12 08:39:17;;;;;;;6.15;2.83;;;;;;;-0.16;100.00;98038.53;4160360;28;20426;-72
2023/03/12 08:41:17;;;;;;;6.00;2.58;;;;;;;-0.06;100.00;98041.72;4160040;28;20554;-72
2023/03/12 08:43:17;;;;;;;3.58;2.67;;;;;;;0.06;100.00;98045.72;4159527;28;20312;-72
2023/03/12 08:45:18;;;;;;;4.32;2.30;;;;;;;0.12;96.22;98042.53;4160211;28;20049;-72
2023/03/12 08:47:18;;;;;;;6.53;2.80;;;;;;;0.23;95.07;98032.13;4159900;28;20400;-72
2023/03/12 08:49:20;;;;;;;5.13;2.83;;;;;;;0.25;95.27;98027.97;4159862;28;20045;-72
2023/03/12 08:51:20;;;;;;;5.13;2.80;;;;;;;0.27;96.86;98030.38;4159971;28;20041;-72
2023/03/12 08:53:21;;;;;;;3.80;2.70;;;;;;;0.25;95.38;98027.19;4159509;28;20371;-72
2023/03/12 08:55:22;;;;;;;4.10;2.60;;;;;;;0.31;96.32;98020.41;4159108;28;20184;-72
2023/03/12 08:57:22;;;;;;;5.00;2.47;;;;;;;0.39;94.39;98029.69;4158324;28;20046;-72
2023/03/12 08:59:22;;;;;;;4.78;2.15;;;;;;;0.45;92.74;98017.53;4160004;28;20055;-72
2023/03/12 09:01:23;;;;;;;3.20;2.20;;;;;;;0.49;91.29;98021.19;4159106;28;20061;-72
2023/03/12 09:03:24;;;;;;;2.90;2.08;;;;;;;0.47;93.06;98012.56;4155854;28;20042;-72
2023/03/12 09:05:28;;;;;;;7.68;2.67;;;;;;;0.50;93.07;98001.84;4158945;28;20537;-72
2023/03/12 09:07:32;;;;;;;3.80;2.28;;;;;;;0.48;92.55;98014.16;4159100;28;20336;-72
2023/03/12 09:09:32;;;;;;;3.28;2.22;;;;;;;0.56;90.05;98008.69;4158359;28;20068;-72
2023/03/12 09:11:35;;;;;;;4.90;2.25;;;;;;;0.61;89.51;97998.78;4159477;28;20037;-72
2023/03/12 09:13:35;;;;;;;3.67;2.22;;;;;;;0.72;89.60;98000.81;4158545;28;20102;-72
2023/03/12 09:15:35;;;;;;;3.60;2.15;;;;;;;0.80;89.79;98010.06;4159241;28;20057;-72
2023/03/12 09:17:36;;;;;;;3.05;2.22;;;;;;;0.86;89.63;98011.50;4158325;28;20048;-72
2023/03/12 09:19:37;;;;;;;6.35;2.53;;;;;;;0.88;89.61;98005.72;4159176;28;20041;-72
2023/03/12 09:21:38;;;;;;;2.53;1.92;;;;;;;0.79;91.37;98009.28;4159990;28;20041;-72
2023/03/12 09:23:39;;;;;;;5.00;2.73;;;;;;;0.80;91.06;97996.47;4156565;28;20041;-72